Time;durP1;ratioP1;P1;durP2;ratioP2;P2;SDS_P1;SDS_P2;PMS_P1;PMS_P2;Temp;Humidity;BMP_temperature;BMP_pressure;BME280_temperature;BME280_humidity;BME280_pressure;Samples;Min_cycle;Max_cycle;Signal;HPM_P1;HPM_P2
2023/11/07 00:02:19;;;;;;;9.63;3.17;;;;;;;11.35;100.00;100384.72;6153049;23;20016;-80
2023/11/07 00:04:45;;;;;;;7.65;3.30;;;;;;;11.31;100.00;100392.34;6126417;23;20096;-80
2023/11/07 00:07:10;;;;;;;7.22;3.47;;;;;;;11.24;100.00;100399.59;6152875;23;20037;-80
2023/11/07 00:09:36;;;;;;;9.45;2.90;;;;;;;11.39;100.00;100383.28;6126711;23;20068;-80
2023/11/07 00:12:02;;;;;;;8.30;3.58;;;;;;;11.48;100.00;100381.94;6126639;23;20384;-80
2023/11/07 00:14:28;;;;;;;8.52;3.08;;;;;;;10.89;100.00;100377.81;6152812;23;20005;-81
2023/11/07 00:16:54;;;;;;;6.47;2.90;;;;;;;10.88;100.00;100370.84;6152833;23;20009;-80
2023/11/07 00:19:19;;;;;;;8.00;3.00;;;;;;;11.10;100.00;100366.00;6126665;23;20080;-82
2023/11/07 00:21:45;;;;;;;5.97;2.92;;;;;;;11.20;100.00;100382.38;6152390;23;20009;-81
2023/11/07 00:24:10;;;;;;;6.65;3.15;;;;;;;11.02;100.00;100388.44;6126704;23;20416;-81
2023/11/07 00:26:36;;;;;;;7.28;3.17;;;;;;;10.96;100.00;100367.94;6126905;23;20013;-81
2023/11/07 00:29:01;;;;;;;8.40;3.58;;;;;;;11.33;100.00;100381.47;6126605;23;20005;-81
2023/11/07 00:31:27;;;;;;;9.85;3.53;;;;;;;11.23;99.88;100388.09;6126628;23;20016;-81
2023/11/07 00:33:55;;;;;;;8.00;3.03;;;;;;;11.17;100.00;100375.59;6151462;23;19997;-81
2023/11/07 00:36:22;;;;;;;7.05;3.20;;;;;;;10.77;100.00;100359.81;6151728;23;20013;-82
2023/11/07 00:38:47;;;;;;;6.13;3.03;;;;;;;10.74;100.00;100386.09;6126015;23;20010;-82
2023/11/07 00:41:15;;;;;;;7.45;3.08;;;;;;;10.42;100.00;100365.50;6126490;23;20081;-81
2023/11/07 00:43:41;;;;;;;;;;;;;;;9.98;100.00;100398.97;6153117;23;20067;-83
2023/11/07 00:46:07;;;;;;;8.07;3.05;;;;;;;9.79;100.00;100370.53;6152613;23;19908;-82
2023/11/07 00:48:33;;;;;;;6.57;3.00;;;;;;;10.50;100.00;100409.78;6152533;23;20097;-82
2023/11/07 00:51:00;;;;;;;7.90;3.10;;;;;;;10.04;100.00;100408.00;6126390;23;20579;-82
2023/11/07 00:53:25;;;;;;;7.18;3.15;;;;;;;9.61;100.00;100361.31;6126567;23;20009;-82
2023/11/07 00:55:51;;;;;;;8.15;3.22;;;;;;;9.74;100.00;100381.78;6152102;23;20063;-81
2023/11/07 00:58:16;;;;;;;10.30;3.75;;;;;;;10.35;100.00;100399.34;6152452;23;20010;-82
2023/11/07 01:00:41;;;;;;;7.25;2.80;;;;;;;9.98;100.00;100356.34;6126397;23;20002;-81
2023/11/07 01:03:07;;;;;;;9.13;3.58;;;;;;;10.39;100.00;100397.09;6152369;23;20481;-81
2023/11/07 01:05:32;;;;;;;8.88;3.22;;;;;;;9.93;100.00;100400.63;6126432;23;20096;-81
2023/11/07 01:07:58;;;;;;;8.30;2.90;;;;;;;9.61;100.00;100390.59;6152632;23;20769;-82
2023/11/07 01:10:23;;;;;;;8.02;3.13;;;;;;;9.81;100.00;100381.78;6126468;23;20458;-81
2023/11/07 01:12:52;;;;;;;8.55;2.90;;;;;;;9.57;100.00;100392.03;6126776;23;20008;-81
2023/11/07 01:15:19;;;;;;;6.40;2.80;;;;;;;9.89;100.00;100394.91;6152585;23;20080;-83
2023/11/07 01:17:44;;;;;;;4.90;2.88;;;;;;;10.36;100.00;100401.00;6126459;23;20006;-80
2023/11/07 01:20:10;;;;;;;7.85;3.08;;;;;;;10.16;100.00;100378.88;6151942;23;20012;-82
2023/11/07 01:22:37;;;;;;;7.40;2.95;;;;;;;10.16;100.00;100401.00;6126060;23;20080;-81
2023/11/07 01:25:04;;;;;;;8.75;2.92;;;;;;;10.49;100.00;100413.47;6151870;23;20009;-80
2023/11/07 01:27:30;;;;;;;7.25;3.00;;;;;;;10.38;100.00;100411.44;6126444;23;20010;-81
2023/11/07 01:29:55;;;;;;;5.68;2.55;;;;;;;9.54;100.00;100396.94;6126059;23;20010;-81
2023/11/07 01:32:21;;;;;;;5.93;2.42;;;;;;;9.28;100.00;100429.69;6125982;23;20009;-81
2023/11/07 01:34:46;;;;;;;4.78;2.65;;;;;;;9.50;100.00;100444.47;6152117;23;20009;-81
2023/11/07 01:37:12;;;;;;;5.47;2.28;;;;;;;9.21;100.00;100430.47;6152356;23;20005;-86
2023/11/07 01:39:37;;;;;;;6.72;2.60;;;;;;;9.12;100.00;100405.06;6151898;23;20048;-81
2023/11/07 01:42:03;;;;;;;6.38;2.80;;;;;;;9.12;100.00;100431.66;6152082;23;20020;-81
2023/11/07 01:44:29;;;;;;;6.00;3.00;;;;;;;9.63;100.00;100431.16;6125961;23;20550;-83
2023/11/07 01:46:56;;;;;;;7.78;2.60;;;;;;;9.75;100.00;100446.53;6125755;23;20100;-81
2023/11/07 01:49:24;;;;;;;6.22;2.90;;;;;;;9.05;100.00;100430.81;6125506;23;20026;-80
2023/11/07 01:51:49;;;;;;;6.80;3.08;;;;;;;8.73;100.00;100443.78;6126471;23;20083;-80
2023/11/07 01:54:16;;;;;;;7.10;2.70;;;;;;;9.24;100.00;100450.53;6151570;23;20009;-83
2023/11/07 01:56:42;;;;;;;5.95;2.67;;;;;;;9.37;100.00;100439.09;6125882;23;20025;-81
2023/11/07 01:59:08;;;;;;;6.13;2.50;;;;;;;9.50;100.00;100433.81;6125875;23;20628;-81
2023/11/07 02:01:36;;;;;;;10.05;3.30;;;;;;;9.43;100.00;100427.66;6126012;23;20016;-81
2023/11/07 02:04:02;;;;;;;4.53;2.67;;;;;;;9.69;100.00;100458.00;6151735;23;20068;-81
2023/11/07 02:06:28;;;;;;;5.60;2.90;;;;;;;9.64;100.00;100472.75;6125955;23;20013;-81
2023/11/07 02:08:55;;;;;;;8.40;2.90;;;;;;;9.76;100.00;100443.66;6151936;23;20005;-81
2023/11/07 02:11:22;;;;;;;9.25;3.28;;;;;;;9.80;100.00;100474.19;6125061;23;20091;-82
2023/11/07 02:13:48;;;;;;;6.18;2.90;;;;;;;9.58;100.00;100446.94;6125283;23;20013;-81
2023/11/07 02:16:14;;;;;;;7.63;2.83;;;;;;;9.41;100.00;100464.28;6125609;23;20010;-81
2023/11/07 02:18:39;;;;;;;7.53;3.05;;;;;;;8.99;100.00;100468.84;6151457;23;20017;-81
2023/11/07 02:21:05;;;;;;;6.50;2.58;;;;;;;8.69;100.00;100460.34;6125595;23;20008;-80
2023/11/07 02:23:34;;;;;;;7.68;2.45;;;;;;;8.95;100.00;100486.22;6125263;23;20029;-81
2023/11/07 02:26:00;;;;;;;10.15;4.15;;;;;;;9.44;100.00;100482.53;6151536;23;20013;-83
2023/11/07 02:28:26;;;;;;;10.90;4.90;;;;;;;9.60;100.00;100476.84;6125626;23;20022;-80
2023/11/07 02:30:51;;;;;;;8.98;4.72;;;;;;;9.71;100.00;100483.41;6151628;23;20005;-80
2023/11/07 02:33:19;;;;;;;11.93;4.60;;;;;;;9.64;100.00;100456.78;6125317;23;20336;-81
2023/11/07 02:35:45;;;;;;;7.80;4.63;;;;;;;9.98;100.00;100475.44;6151479;23;20085;-82
2023/11/07 02:38:12;;;;;;;12.25;5.45;;;;;;;9.96;100.00;100482.81;6151162;23;20343;-81
2023/11/07 02:40:37;;;;;;;8.50;4.63;;;;;;;9.83;100.00;100459.66;6151607;23;20009;-80
2023/11/07 02:43:06;;;;;;;8.18;3.85;;;;;;;9.84;100.00;100493.25;6151422;23;20001;-82
2023/11/07 02:45:36;;;;;;;7.75;3.60;;;;;;;9.78;100.00;100494.88;6153251;23;20006;-83
2023/11/07 02:48:03;;;;;;;6.50;3.03;;;;;;;9.07;100.00;100481.97;6153053;23;20036;-80
2023/11/07 02:50:29;;;;;;;5.45;2.80;;;;;;;8.78;100.00;100478.59;6126904;23;20013;-80
2023/11/07 02:52:54;;;;;;;6.65;2.90;;;;;;;8.38;100.00;100441.13;6152949;23;20013;-81
2023/11/07 02:55:20;;;;;;;5.78;2.50;;;;;;;8.58;100.00;100461.69;6127961;23;20033;-81
2023/11/07 02:57:45;;;;;;;6.18;2.95;;;;;;;8.61;100.00;100477.28;6127433;23;20005;-81
2023/11/07 03:00:12;;;;;;;6.85;3.25;;;;;;;8.87;100.00;100486.41;6127361;23;20065;-80
2023/11/07 03:02:41;;;;;;;8.30;3.50;;;;;;;8.77;100.00;100482.28;6127304;23;20021;-80
2023/11/07 03:05:08;;;;;;;6.68;2.88;;;;;;;8.56;100.00;100485.84;6153370;23;20343;-81
2023/11/07 03:07:34;;;;;;;5.60;3.08;;;;;;;8.51;100.00;100498.06;6153268;23;20020;-81
2023/11/07 03:10:01;;;;;;;6.65;2.65;;;;;;;8.07;100.00;100480.53;6153151;23;20010;-85
2023/11/07 03:12:28;;;;;;;4.43;2.00;;;;;;;8.32;100.00;100478.28;6127344;23;20013;-81
2023/11/07 03:14:54;;;;;;;9.45;3.70;;;;;;;8.43;100.00;100472.47;6127119;23;20064;-81
2023/11/07 03:17:20;;;;;;;5.82;2.78;;;;;;;8.87;100.00;100483.75;6127384;23;20009;-82
2023/11/07 03:19:51;;;;;;;8.00;3.25;;;;;;;9.23;100.00;100484.31;6152996;23;20001;-81
2023/11/07 03:22:17;;;;;;;6.25;3.67;;;;;;;8.69;100.00;100466.47;6127187;23;20009;-82
2023/11/07 03:24:42;;;;;;;7.35;3.08;;;;;;;8.93;100.00;100498.91;6127362;23;20556;-81
2023/11/07 03:27:08;;;;;;;6.75;3.50;;;;;;;8.92;100.00;100483.97;6126997;23;20332;-81
2023/11/07 03:29:34;;;;;;;8.98;4.68;;;;;;;8.91;100.00;100482.31;6153205;23;20001;-81
2023/11/07 03:31:59;;;;;;;9.93;3.42;;;;;;;9.11;100.00;100474.44;6126765;23;20067;-80
2023/11/07 03:34:25;;;;;;;7.93;3.67;;;;;;;8.89;100.00;100500.31;6127228;23;20355;-81
2023/11/07 03:36:51;;;;;;;7.53;3.28;;;;;;;8.54;100.00;100508.31;6126830;23;20013;-81
2023/11/07 03:39:16;;;;;;;5.95;3.17;;;;;;;8.74;100.00;100487.97;6127255;23;20403;-81
2023/11/07 03:41:42;;;;;;;6.88;3.20;;;;;;;8.91;100.00;100508.91;6126885;23;20013;-81
2023/11/07 03:44:07;;;;;;;6.75;3.17;;;;;;;8.17;100.00;100503.13;6152493;23;20579;-83
2023/11/07 03:46:33;;;;;;;7.03;3.20;;;;;;;8.25;100.00;100463.13;6126824;23;20005;-80
2023/11/07 03:48:58;;;;;;;8.95;3.60;;;;;;;8.78;100.00;100475.91;6152423;23;20052;-81
2023/11/07 03:51:23;;;;;;;7.75;3.70;;;;;;;8.76;100.00;100498.41;6126691;23;20013;-81
2023/11/07 03:53:49;;;;;;;7.43;4.00;;;;;;;8.72;100.00;100510.47;6126202;23;20499;-80
2023/11/07 03:56:15;;;;;;;9.45;3.88;;;;;;;8.52;100.00;100497.03;6152782;23;20002;-81
2023/11/07 03:58:40;;;;;;;10.50;4.60;;;;;;;8.29;100.00;100506.06;6152923;23;20064;-82
2023/11/07 04:01:06;;;;;;;9.25;4.47;;;;;;;8.80;100.00;100518.28;6152626;23;20076;-80
2023/11/07 04:03:32;;;;;;;8.90;4.43;;;;;;;8.80;100.00;100524.41;6126279;23;20020;-81
2023/11/07 04:05:59;;;;;;;9.27;4.75;;;;;;;8.99;100.00;100522.06;6152952;23;20009;-81
2023/11/07 04:08:25;;;;;;;7.25;4.38;;;;;;;8.30;100.00;100528.97;6126570;23;20006;-81
2023/11/07 04:10:50;;;;;;;7.25;4.40;;;;;;;8.10;100.00;100525.31;6152274;23;20088;-81
2023/11/07 04:13:16;;;;;;;7.05;4.20;;;;;;;8.11;100.00;100529.63;6152866;23;20040;-81
2023/11/07 04:15:42;;;;;;;9.30;3.53;;;;;;;7.88;100.00;100545.75;6127037;23;20343;-81
2023/11/07 04:18:09;;;;;;;9.85;4.13;;;;;;;8.35;100.00;100547.78;6153372;23;20012;-81
2023/11/07 04:20:36;;;;;;;7.50;4.03;;;;;;;8.75;100.00;100526.03;6126892;23;20345;-81
2023/11/07 04:23:02;;;;;;;9.05;4.22;;;;;;;8.30;100.00;100523.66;6126358;23;20077;-80
2023/11/07 04:25:28;;;;;;;8.73;4.70;;;;;;;8.27;100.00;100533.84;6152324;23;20446;-81
2023/11/07 04:27:54;;;;;;;9.57;4.28;;;;;;;8.21;100.00;100488.44;6152603;23;20001;-81
2023/11/07 04:30:20;;;;;;;8.13;4.40;;;;;;;8.07;100.00;100526.53;6126359;23;20032;-83
2023/11/07 04:32:45;;;;;;;8.60;4.55;;;;;;;7.98;100.00;100546.25;6152323;23;20091;-81
2023/11/07 04:35:11;;;;;;;10.07;4.07;;;;;;;7.43;100.00;100508.72;6126035;23;20009;-81
2023/11/07 04:37:37;;;;;;;8.35;4.05;;;;;;;7.62;100.00;100494.00;6152534;23;20119;-82
2023/11/07 04:40:04;;;;;;;7.38;3.70;;;;;;;8.11;100.00;100545.53;6126272;23;20779;-81
2023/11/07 04:42:30;;;;;;;7.72;3.72;;;;;;;8.23;100.00;100554.66;6126314;23;20060;-81
2023/11/07 04:44:56;;;;;;;6.90;3.65;;;;;;;7.64;100.00;100527.34;6126101;23;20006;-82
2023/11/07 04:47:22;;;;;;;8.90;3.83;;;;;;;7.58;100.00;100528.09;6126245;23;20002;-81
2023/11/07 04:49:48;;;;;;;8.05;3.95;;;;;;;7.38;100.00;100550.94;6126163;23;20398;-81
2023/11/07 04:52:14;;;;;;;11.38;4.57;;;;;;;7.64;100.00;100556.56;6152268;23;20009;-80
2023/11/07 04:54:39;;;;;;;11.20;5.22;;;;;;;7.91;100.00;100548.03;6126088;23;20128;-80
2023/11/07 04:57:08;;;;;;;9.43;4.50;;;;;;;8.03;100.00;100555.31;6125772;23;20420;-81
2023/11/07 04:59:33;;;;;;;8.55;3.85;;;;;;;8.19;100.00;100554.22;6126071;23;20018;-81
2023/11/07 05:01:59;;;;;;;9.73;4.70;;;;;;;8.19;100.00;100558.69;6125991;23;20018;-85
2023/11/07 05:04:26;;;;;;;8.63;4.50;;;;;;;8.34;100.00;100562.13;6151630;23;20009;-82
2023/11/07 05:06:51;;;;;;;9.75;4.32;;;;;;;8.31;100.00;100562.47;6125971;23;20005;-81
2023/11/07 05:09:17;;;;;;;7.47;4.00;;;;;;;8.19;100.00;100580.81;6152384;23;20068;-81
2023/11/07 05:11:43;;;;;;;8.60;4.82;;;;;;;8.36;100.00;100586.66;6125796;23;20016;-80
2023/11/07 05:14:09;;;;;;;9.90;4.82;;;;;;;8.55;100.00;100584.38;6151615;23;20001;-80
2023/11/07 05:16:38;;;;;;;10.27;4.97;;;;;;;8.67;100.00;100588.16;6151907;23;20001;-81
2023/11/07 05:19:07;;;;;;;11.98;5.47;;;;;;;8.42;100.00;100577.94;6125667;23;20020;-86
2023/11/07 05:21:33;;;;;;;10.68;4.85;;;;;;;8.40;100.00;100592.44;6125668;23;20013;-84
2023/11/07 05:23:58;;;;;;;13.07;4.93;;;;;;;8.04;100.00;100586.16;6151470;23;20012;-80
2023/11/07 05:26:24;;;;;;;11.77;5.03;;;;;;;7.97;100.00;100571.19;6125737;23;20104;-80
2023/11/07 05:28:50;;;;;;;15.57;5.25;;;;;;;8.03;100.00;100610.28;6152153;23;20009;-81
2023/11/07 05:31:16;;;;;;;13.07;5.28;;;;;;;7.69;100.00;100595.78;6125644;23;20012;-80
2023/11/07 05:33:43;;;;;;;8.38;4.07;;;;;;;8.03;100.00;100618.25;6151791;23;20826;-80
2023/11/07 05:36:09;;;;;;;11.63;4.15;;;;;;;8.40;100.00;100625.13;6125696;23;20095;-81
2023/11/07 05:38:34;;;;;;;11.63;3.97;;;;;;;8.33;100.00;100612.78;6152161;23;20092;-84
2023/11/07 05:41:00;;;;;;;8.15;4.75;;;;;;;8.55;100.00;100626.94;6125763;23;20052;-84
2023/11/07 05:43:25;;;;;;;8.05;4.35;;;;;;;8.49;100.00;100614.41;6125989;23;20010;-85
2023/11/07 05:45:53;;;;;;;11.65;4.63;;;;;;;8.37;100.00;100604.25;6125752;23;20017;-85
2023/11/07 05:48:24;;;;;;;11.82;5.07;;;;;;;8.71;100.00;100647.09;6120986;23;20014;-85
2023/11/07 05:50:50;;;;;;;12.68;5.78;;;;;;;8.97;100.00;100635.81;6121342;23;20017;-85
2023/11/07 05:53:18;;;;;;;10.63;4.90;;;;;;;9.06;100.00;100629.34;6121165;23;20014;-85
2023/11/07 05:55:45;;;;;;;37.03;6.93;;;;;;;9.40;100.00;100651.66;6121256;23;20012;-84
2023/11/07 05:58:10;;;;;;;12.18;5.35;;;;;;;9.42;100.00;100644.31;6122544;23;20010;-84
2023/11/07 06:00:39;;;;;;;12.98;5.82;;;;;;;9.39;100.00;100626.88;6121130;23;20013;-83
2023/11/07 06:03:05;;;;;;;13.32;5.22;;;;;;;9.58;100.00;100632.47;6120840;23;20380;-84
2023/11/07 06:05:30;;;;;;;13.43;5.43;;;;;;;9.72;100.00;100622.72;6120679;23;20006;-85
2023/11/07 06:07:57;;;;;;;13.60;6.10;;;;;;;10.15;100.00;100649.06;6121193;23;20013;-83
2023/11/07 06:10:23;;;;;;;9.98;5.10;;;;;;;9.93;100.00;100646.56;6121158;23;20002;-84
2023/11/07 06:12:49;;;;;;;9.38;5.45;;;;;;;10.25;100.00;100633.50;6120905;23;20474;-83
2023/11/07 06:15:14;;;;;;;12.65;5.95;;;;;;;9.87;100.00;100628.72;6120930;23;20009;-84
2023/11/07 06:17:40;;;;;;;12.73;6.63;;;;;;;10.20;100.00;100630.63;6120751;23;20361;-82
2023/11/07 06:20:06;;;;;;;10.70;6.45;;;;;;;10.42;100.00;100647.28;6120926;23;20448;-83
2023/11/07 06:22:31;;;;;;;11.88;7.18;;;;;;;10.39;100.00;100645.84;6120944;23;20100;-84
2023/11/07 06:24:57;;;;;;;11.05;5.97;;;;;;;10.84;100.00;100642.59;6120908;23;20053;-84
2023/11/07 06:27:22;;;;;;;13.07;5.90;;;;;;;11.10;100.00;100660.44;6121080;23;20010;-83
2023/11/07 06:29:48;;;;;;;12.80;6.20;;;;;;;11.41;100.00;100653.59;6121003;23;20022;-83
2023/11/07 06:32:14;;;;;;;9.32;5.53;;;;;;;11.20;100.00;100636.00;6121148;23;20052;-83
2023/11/07 06:34:40;;;;;;;10.73;5.43;;;;;;;11.02;100.00;100610.75;6121209;23;20089;-86
2023/11/07 06:37:07;;;;;;;12.35;6.40;;;;;;;11.04;100.00;100623.91;6122369;23;20010;-80
2023/11/07 06:39:32;;;;;;;11.68;6.18;;;;;;;11.39;100.00;100628.94;6121996;23;20080;-80
2023/11/07 06:41:58;;;;;;;13.40;6.10;;;;;;;11.17;100.00;100620.38;6122529;23;20391;-82
2023/11/07 06:44:24;;;;;;;11.15;5.43;;;;;;;11.37;100.00;100668.41;6121031;23;20089;-83
2023/11/07 06:46:51;;;;;;;13.98;6.47;;;;;;;11.34;100.00;100652.78;6119711;23;20036;-84
2023/11/07 06:49:17;;;;;;;11.90;6.38;;;;;;;11.58;100.00;100646.75;6133940;23;20057;-82
2023/11/07 06:51:43;;;;;;;11.80;5.63;;;;;;;11.80;100.00;100646.47;6140348;23;20021;-84
2023/11/07 06:54:08;;;;;;;11.00;5.40;;;;;;;11.98;98.87;100648.47;6139748;23;20050;-85
2023/11/07 06:56:34;;;;;;;10.90;5.10;;;;;;;12.08;98.90;100651.50;6136696;23;20033;-84
2023/11/07 06:58:59;;;;;;;9.43;4.75;;;;;;;12.23;98.37;100651.19;6137658;23;20419;-85
2023/11/07 07:01:25;;;;;;;11.93;5.10;;;;;;;12.50;95.61;100640.31;6135283;23;20010;-84
2023/11/07 07:03:54;;;;;;;10.45;4.32;;;;;;;12.61;98.45;100647.66;6129745;23;20436;-84
2023/11/07 07:06:23;;;;;;;9.95;4.30;;;;;;;12.72;94.03;100643.44;6127319;23;20437;-83
2023/11/07 07:08:50;;;;;;;9.27;4.53;;;;;;;12.78;92.52;100650.59;6125739;23;20452;-85
2023/11/07 07:11:15;;;;;;;8.88;4.22;;;;;;;12.88;93.79;100676.88;6124316;23;20028;-84
2023/11/07 07:13:41;;;;;;;9.40;4.35;;;;;;;13.15;91.98;100670.22;6124263;23;20085;-84
2023/11/07 07:16:08;;;;;;;9.85;3.90;;;;;;;13.21;94.42;100680.03;6123248;23;20017;-84
2023/11/07 07:18:34;;;;;;;6.97;3.35;;;;;;;13.47;90.31;100672.81;6123299;23;20014;-84
2023/11/07 07:21:00;;;;;;;9.55;3.90;;;;;;;13.62;92.40;100654.50;6124177;23;20009;-85
2023/11/07 07:23:25;;;;;;;9.52;4.05;;;;;;;13.95;85.83;100661.28;6123880;23;20143;-84
2023/11/07 07:25:53;;;;;;;10.90;5.05;;;;;;;13.90;89.88;100655.81;6121395;23;20092;-84
2023/11/07 07:28:20;;;;;;;10.55;3.90;;;;;;;14.27;84.83;100667.25;6121656;23;20010;-84
2023/11/07 07:30:47;;;;;;;8.50;3.60;;;;;;;14.57;84.17;100679.88;6121465;23;20083;-84
2023/11/07 07:33:15;;;;;;;8.10;3.47;;;;;;;14.61;80.69;100675.69;6122475;23;20434;-85
2023/11/07 07:35:40;;;;;;;6.00;2.80;;;;;;;14.62;79.08;100652.31;6123537;23;20017;-83
2023/11/07 07:38:09;;;;;;;7.93;3.22;;;;;;;14.75;82.89;100662.88;6123378;23;20006;-84
2023/11/07 07:40:34;;;;;;;12.40;4.63;;;;;;;14.63;82.67;100662.03;6122491;23;20012;-83
2023/11/07 07:43:08;;;;;;;9.32;3.78;;;;;;;15.16;79.57;100679.94;6122355;23;20499;-83
2023/11/07 07:45:44;;;;;;;9.13;3.33;;;;;;;15.41;76.47;100676.16;6122054;23;20061;-83
2023/11/07 07:48:10;;;;;;;8.90;3.33;;;;;;;15.57;74.72;100686.19;6124732;23;20374;-83
2023/11/07 07:50:41;;;;;;;9.30;3.42;;;;;;;15.30;74.97;100668.91;6126860;23;20099;-83
2023/11/07 07:53:08;;;;;;;9.18;3.30;;;;;;;15.46;77.61;100662.81;6126503;23;20014;-82
2023/11/07 07:55:42;;;;;;;8.48;3.97;;;;;;;15.84;73.31;100654.22;6152253;23;20005;-84
2023/11/07 07:58:08;;;;;;;10.18;3.85;;;;;;;15.76;74.99;100657.28;6126579;23;20013;-82
2023/11/07 08:00:37;;;;;;;20.23;9.05;;;;;;;15.88;77.17;100659.13;6126393;23;20064;-83
2023/11/07 08:03:11;;;;;;;10.65;4.20;;;;;;;15.92;75.96;100671.88;6126553;23;20013;-85
2023/11/07 08:05:39;;;;;;;7.72;3.88;;;;;;;16.03;76.37;100668.28;6152102;23;20005;-83
2023/11/07 08:08:06;;;;;;;10.98;6.28;;;;;;;16.16;75.29;100661.00;6126228;23;20009;-82
2023/11/07 08:10:32;;;;;;;9.45;4.60;;;;;;;16.13;73.01;100639.97;6125835;23;20081;-83
2023/11/07 08:12:57;;;;;;;11.75;4.50;;;;;;;16.09;72.49;100661.16;6152299;23;20005;-84
2023/11/07 08:15:26;;;;;;;8.95;4.40;;;;;;;16.04;74.51;100636.84;6125968;23;20006;-83
2023/11/07 08:17:52;;;;;;;9.60;4.05;;;;;;;16.47;69.74;100676.63;6125274;23;20116;-83
2023/11/07 08:20:22;;;;;;;7.50;3.20;;;;;;;16.50;69.44;100643.03;6125861;23;20017;-84
2023/11/07 08:22:49;;;;;;;9.77;4.00;;;;;;;16.90;67.98;100687.03;6125791;23;20006;-82
2023/11/07 08:25:17;;;;;;;12.02;3.83;;;;;;;16.86;67.75;100657.09;6125711;23;20028;-84
2023/11/07 08:27:44;;;;;;;;;;;;;;;17.45;64.71;100686.25;6126284;23;20014;-83
2023/11/07 08:30:14;;;;;;;9.57;3.67;;;;;;;17.56;63.11;100671.00;6151434;23;19948;-84
2023/11/07 08:32:43;;;;;;;8.52;3.47;;;;;;;17.52;66.46;100667.97;6125219;23;20009;-84
2023/11/07 08:35:15;;;;;;;7.50;3.78;;;;;;;17.76;64.48;100660.47;6151371;23;20013;-83
2023/11/07 08:37:51;;;;;;;9.88;3.90;;;;;;;17.82;62.31;100672.13;6124730;23;20359;-83
2023/11/07 08:40:18;;;;;;;7.75;3.35;;;;;;;18.03;60.57;100700.19;6125128;23;20040;-84
2023/11/07 08:42:44;;;;;;;14.73;3.97;;;;;;;18.20;61.54;100678.50;6124771;23;20013;-84
2023/11/07 08:45:18;;;;;;;15.13;3.50;;;;;;;18.09;62.14;100665.97;6125013;23;20069;-84
2023/11/07 08:47:45;;;;;;;7.55;2.95;;;;;;;18.34;59.83;100668.09;6150986;23;20066;-83
2023/11/07 08:50:11;;;;;;;10.05;3.50;;;;;;;18.39;61.24;100682.47;6124357;23;20021;-83
2023/11/07 08:52:37;;;;;;;10.00;2.95;;;;;;;18.13;61.44;100667.91;6151202;23;20144;-83
2023/11/07 08:55:05;;;;;;;8.43;2.90;;;;;;;18.48;61.15;100680.94;6125189;23;20012;-83
2023/11/07 08:57:31;;;;;;;9.38;3.00;;;;;;;18.45;59.53;100683.34;6125026;23;20025;-84
2023/11/07 08:59:57;;;;;;;9.43;2.90;;;;;;;18.36;59.16;100671.38;6124942;23;20032;-83
2023/11/07 09:02:23;;;;;;;7.80;2.75;;;;;;;18.44;60.47;100674.41;6125001;23;20014;-84
2023/11/07 09:04:48;;;;;;;13.50;2.80;;;;;;;18.54;59.57;100667.47;6124982;23;20512;-82
2023/11/07 09:07:16;;;;;;;8.40;2.63;;;;;;;18.62;59.12;100691.31;6151228;23;20114;-85
2023/11/07 09:09:42;;;;;;;7.90;2.92;;;;;;;18.78;59.74;100674.16;6151135;23;20032;-84
2023/11/07 09:12:10;;;;;;;7.80;2.50;;;;;;;19.35;57.08;100697.00;6125270;23;20017;-85
2023/11/07 09:14:35;;;;;;;7.78;2.70;;;;;;;19.38;57.98;100674.03;6125135;23;20439;-85
2023/11/07 09:17:02;;;;;;;8.18;3.10;;;;;;;19.35;57.62;100661.03;6124632;23;20013;-83
2023/11/07 09:19:27;;;;;;;7.85;2.55;;;;;;;19.66;56.41;100662.00;6151122;23;20008;-84
2023/11/07 09:21:53;;;;;;;6.82;2.80;;;;;;;19.35;55.83;100650.19;6124649;23;20009;-82
2023/11/07 09:24:18;;;;;;;10.73;2.40;;;;;;;19.83;54.11;100664.50;6124791;23;20481;-83
2023/11/07 09:26:43;;;;;;;8.00;2.53;;;;;;;19.93;54.76;100661.03;6125000;23;20090;-84
2023/11/07 09:29:09;;;;;;;8.13;2.50;;;;;;;20.13;54.42;100652.94;6150915;23;20068;-83
2023/11/07 09:31:34;;;;;;;5.97;2.42;;;;;;;20.30;54.47;100666.22;6150442;23;20005;-84
2023/11/07 09:34:00;;;;;;;5.57;2.60;;;;;;;20.23;55.71;100634.00;6124359;23;20014;-85
2023/11/07 09:36:26;;;;;;;7.05;2.35;;;;;;;20.16;52.96;100638.84;6124346;23;20120;-84
2023/11/07 09:38:51;;;;;;;9.35;2.10;;;;;;;20.26;52.54;100643.47;6124001;23;20084;-82
2023/11/07 09:41:17;;;;;;;5.00;2.50;;;;;;;20.17;52.86;100637.78;6150017;23;20097;-81
2023/11/07 09:43:45;;;;;;;8.52;2.60;;;;;;;20.34;53.17;100634.00;6123503;23;20009;-80
2023/11/07 09:46:11;;;;;;;6.47;1.73;;;;;;;20.75;52.34;100655.72;6149478;23;20129;-80
2023/11/07 09:48:37;;;;;;;6.72;2.05;;;;;;;20.92;49.66;100629.09;6122902;23;20029;-80
2023/11/07 09:51:04;;;;;;;6.20;1.90;;;;;;;21.01;49.03;100627.47;6149009;23;20391;-81
2023/11/07 09:53:31;;;;;;;7.03;2.40;;;;;;;20.96;50.01;100640.22;6149487;23;20024;-80
2023/11/07 09:55:58;;;;;;;10.48;3.80;;;;;;;21.10;49.85;100624.19;6149364;23;20014;-80
2023/11/07 09:58:29;;;;;;;10.30;2.58;;;;;;;21.13;47.45;100631.81;6148773;23;20002;-82
2023/11/07 10:00:58;;;;;;;6.35;2.63;;;;;;;21.33;46.21;100625.47;6149371;23;20009;-81
2023/11/07 10:03:24;;;;;;;6.95;3.10;;;;;;;21.37;47.22;100602.13;6149339;23;20612;-82
2023/11/07 10:05:51;;;;;;;5.47;1.70;;;;;;;21.22;46.00;100594.88;6149350;23;20006;-81
2023/11/07 10:08:22;;;;;;;5.60;3.00;;;;;;;21.44;47.62;100599.97;6149271;23;20010;-81
2023/11/07 10:11:06;;;;;;;8.50;2.42;;;;;;;21.57;46.41;100591.22;6149233;23;20623;-82
2023/11/07 10:13:32;;;;;;;5.45;1.63;;;;;;;21.94;46.66;100584.47;6122621;23;20340;-81
2023/11/07 10:16:08;;;;;;;5.70;1.80;;;;;;;21.73;47.34;100564.00;6149273;23;20573;-81
2023/11/07 10:18:49;;;;;;;7.68;2.00;;;;;;;21.80;46.53;100534.59;6149377;23;20145;-81
2023/11/07 10:21:16;;;;;;;7.30;1.90;;;;;;;21.81;45.78;100579.69;6148919;23;20013;-81
2023/11/07 10:23:41;;;;;;;6.88;2.13;;;;;;;21.44;47.57;100570.94;6149153;23;20056;-80
2023/11/07 10:26:13;;;;;;;10.82;2.25;;;;;;;21.70;46.53;100567.25;6149242;23;20002;-81
2023/11/07 10:28:39;;;;;;;5.72;1.77;;;;;;;21.28;47.02;100556.59;6148558;23;20009;-82
2023/11/07 10:31:18;;;;;;;6.78;2.58;;;;;;;21.51;47.16;100543.47;6123181;23;20014;-81
2023/11/07 10:33:44;;;;;;;6.80;2.00;;;;;;;21.83;46.31;100545.72;6149030;23;20009;-82
2023/11/07 10:36:10;;;;;;;7.45;2.00;;;;;;;21.98;46.10;100558.38;6149013;23;20490;-81
2023/11/07 10:38:38;;;;;;;6.78;1.80;;;;;;;21.96;47.63;100551.59;6149013;23;20006;-81
2023/11/07 10:41:04;;;;;;;8.95;2.78;;;;;;;21.72;45.47;100527.06;6148980;23;20009;-81
2023/11/07 10:43:40;;;;;;;8.73;2.15;;;;;;;22.38;43.87;100545.59;6149389;23;20012;-81
2023/11/07 10:46:08;;;;;;;6.65;1.70;;;;;;;22.57;45.35;100547.56;6149063;23;20009;-81
2023/11/07 10:48:41;;;;;;;9.57;2.20;;;;;;;22.81;43.90;100548.41;6148781;23;20022;-81
2023/11/07 10:51:13;;;;;;;7.88;2.50;;;;;;;22.78;42.69;100516.38;6149018;23;20001;-81
2023/11/07 10:53:43;;;;;;;6.22;2.05;;;;;;;23.02;43.65;100527.25;6149189;23;20057;-82
2023/11/07 10:56:13;;;;;;;6.45;2.45;;;;;;;23.32;43.92;100540.75;6149294;23;20458;-81
2023/11/07 10:58:59;;;;;;;7.10;2.63;;;;;;;23.33;42.98;100509.72;6148989;23;20009;-80
2023/11/07 11:01:27;;;;;;;7.55;2.58;;;;;;;23.31;41.91;100520.88;6123094;23;20094;-81
2023/11/07 11:03:54;;;;;;;8.45;2.95;;;;;;;23.12;43.57;100537.19;6148925;23;20455;-80
2023/11/07 11:06:23;;;;;;;;;;;;;;;22.87;45.76;100522.78;6151091;23;20456;-81
2023/11/07 11:09:06;;;;;;;9.07;2.40;;;;;;;23.54;42.32;100521.09;6150771;23;19904;-82
2023/11/07 11:11:33;;;;;;;7.95;2.28;;;;;;;23.46;42.82;100500.84;6150522;23;20005;-82
2023/11/07 11:13:59;;;;;;;7.00;2.53;;;;;;;23.82;43.33;100522.09;6150535;23;20005;-81
2023/11/07 11:16:26;;;;;;;6.72;2.10;;;;;;;23.63;42.06;100522.88;6150296;23;20001;-80
2023/11/07 11:19:01;;;;;;;7.28;2.58;;;;;;;23.09;43.06;100494.25;6124649;23;20041;-82
2023/11/07 11:21:45;;;;;;;5.82;2.13;;;;;;;23.66;44.32;100513.34;6150353;23;20395;-81